Time;durP1;ratioP1;P1;durP2;ratioP2;P2;SDS_P1;SDS_P2;PMS_P1;PMS_P2;Temp;Humidity;BMP_temperature;BMP_pressure;BME280_temperature;BME280_humidity;BME280_pressure;Samples;Min_cycle;Max_cycle;Signal;HPM_P1;HPM_P2
2022/08/10 00:01:00;;;;;;;0.05;0.05;;;;;;;20.44;57.06;102857.97;4978426;28;20026;-76
2022/08/10 00:03:27;;;;;;;0.10;0.10;;;;;;;20.41;56.85;102858.94;4994178;28;20038;-76
2022/08/10 00:05:55;;;;;;;0.13;0.13;;;;;;;20.37;56.27;102865.31;4994187;28;20033;-77
2022/08/10 00:08:25;;;;;;;0.10;0.10;;;;;;;20.36;56.72;102861.75;4989878;28;20068;-77
2022/08/10 00:10:53;;;;;;;0.10;0.10;;;;;;;20.33;56.71;102856.44;5010206;28;20030;-76
2022/08/10 00:13:20;;;;;;;0.30;0.30;;;;;;;20.32;57.40;102862.75;4989270;28;20037;-76
2022/08/10 00:15:46;;;;;;;0.13;0.13;;;;;;;20.27;57.66;102856.63;4993727;28;20049;-76
2022/08/10 00:18:12;;;;;;;0.30;0.22;;;;;;;20.24;57.05;102855.84;4993426;28;20093;-76
2022/08/10 00:20:39;;;;;;;0.00;0.00;;;;;;;20.21;57.14;102862.19;4993591;28;20112;-77
2022/08/10 00:23:05;;;;;;;0.10;0.10;;;;;;;20.19;57.24;102853.28;4989468;28;20065;-77
2022/08/10 00:25:31;;;;;;;0.10;0.10;;;;;;;20.16;57.88;102861.44;4993696;28;20037;-76
2022/08/10 00:27:57;;;;;;;0.10;0.10;;;;;;;20.13;57.55;102858.84;5000653;28;20035;-77
2022/08/10 00:30:24;;;;;;;0.10;0.10;;;;;;;20.10;57.43;102858.91;4981734;28;20058;-77
2022/08/10 00:32:50;;;;;;;0.00;0.00;;;;;;;20.06;56.95;102855.44;4993733;28;20031;-77
2022/08/10 00:35:16;;;;;;;0.10;0.10;;;;;;;20.02;57.79;102851.94;4997446;28;20035;-77
2022/08/10 00:37:42;;;;;;;0.10;0.10;;;;;;;20.01;58.00;102850.19;5000782;28;20062;-77
2022/08/10 00:40:09;;;;;;;0.10;0.10;;;;;;;20.00;57.77;102851.13;5002102;28;20038;-77
2022/08/10 00:42:35;;;;;;;0.10;0.10;;;;;;;19.96;57.41;102844.06;4997311;28;20083;-77
2022/08/10 00:45:02;;;;;;;0.00;0.00;;;;;;;19.93;57.81;102852.22;4997505;28;20609;-77
2022/08/10 00:47:28;;;;;;;1.25;0.75;;;;;;;19.91;57.69;102848.66;4995572;28;20429;-77
2022/08/10 00:49:56;;;;;;;0.45;0.38;;;;;;;19.88;57.88;102849.63;4996053;28;20400;-77
2022/08/10 00:52:24;;;;;;;0.10;0.10;;;;;;;19.86;57.71;102847.91;4991766;28;20121;-76
2022/08/10 00:54:50;;;;;;;0.10;0.10;;;;;;;19.85;57.70;102848.84;5000216;28;20395;-77
2022/08/10 00:57:18;;;;;;;0.10;0.10;;;;;;;19.83;57.81;102846.19;5000922;28;20034;-77
2022/08/10 00:59:45;;;;;;;0.10;0.10;;;;;;;19.80;58.07;102856.13;4994786;28;20507;-77
2022/08/10 01:02:11;;;;;;;0.10;0.10;;;;;;;19.78;57.88;102852.59;4998492;28;20034;-77
2022/08/10 01:04:38;;;;;;;0.10;0.10;;;;;;;19.75;57.90;102853.56;4994178;28;20034;-76
2022/08/10 01:18:03;;;;;;;0.10;0.10;;;;;;;19.66;58.33;102843.91;5109081;27;1211110;-76
2022/08/10 01:31:52;;;;;;;0.10;0.10;;;;;;;19.49;58.38;102835.41;5090193;28;20899;-80
2022/08/10 01:34:27;;;;;;;0.10;0.10;;;;;;;19.47;58.46;102832.75;5072335;28;20040;-79
2022/08/10 01:37:03;;;;;;;0.10;0.10;;;;;;;19.46;58.50;102832.81;5060098;28;20021;-79
2022/08/10 01:39:35;;;;;;;0.85;0.85;;;;;;;19.40;58.56;102841.91;5059307;28;20041;-79
2022/08/10 01:42:03;;;;;;;0.10;0.10;;;;;;;19.38;57.98;102838.38;5047673;28;20036;-79
2022/08/10 01:44:34;;;;;;;0.05;0.05;;;;;;;19.36;58.47;102835.72;5049648;28;20393;-79
2022/08/10 01:49:59;;;;;;;0.10;0.10;;;;;;;19.32;58.86;102834.03;5042122;28;20383;-79
2022/08/10 01:52:27;;;;;;;;;;;;;;;19.45;58.51;102831.03;5051270;28;20045;-79
2022/08/10 01:54:55;;;;;;;0.10;0.10;;;;;;;19.31;58.22;102834.97;5040363;28;20065;-79
2022/08/10 01:57:23;;;;;;;0.10;0.10;;;;;;;19.29;58.34;102835.91;5039813;28;20037;-79
2022/08/10 01:59:55;;;;;;;0.03;0.03;;;;;;;19.30;58.41;102840.38;5041342;28;20025;-79
2022/08/10 02:02:21;;;;;;;0.00;0.00;;;;;;;19.27;59.28;102829.72;5043429;28;20025;-80
2022/08/10 02:04:49;;;;;;;0.10;0.10;;;;;;;19.27;58.68;102835.09;5047964;28;20037;-79
2022/08/10 02:07:20;;;;;;;0.10;0.10;;;;;;;19.26;58.92;102834.19;5039707;28;20531;-79
2022/08/10 02:09:51;;;;;;;0.10;0.10;;;;;;;19.27;58.79;102832.41;5038404;28;20076;-80
2022/08/10 02:12:21;;;;;;;0.20;0.20;;;;;;;19.23;59.26;102835.16;5039467;28;20067;-79
2022/08/10 02:14:53;;;;;;;0.10;0.10;;;;;;;19.22;59.17;102835.19;5039338;28;20026;-79
2022/08/10 02:17:24;;;;;;;0.10;0.10;;;;;;;19.20;59.45;102828.97;5044540;28;20086;-79
2022/08/10 02:19:53;;;;;;;0.10;0.10;;;;;;;19.18;59.22;102836.22;5038296;28;20017;-80
2022/08/10 02:22:20;;;;;;;0.15;0.15;;;;;;;19.14;59.23;102829.13;5043839;28;20036;-81
2022/08/10 02:24:48;;;;;;;0.10;0.10;;;;;;;19.11;59.52;102829.22;5045653;28;20049;-80
2022/08/10 02:27:15;;;;;;;0.05;0.05;;;;;;;19.07;59.52;102823.03;5060553;28;20079;-81
2022/08/10 02:29:42;;;;;;;0.10;0.10;;;;;;;19.04;59.07;102829.34;5056850;28;20037;-81
2022/08/10 02:32:10;;;;;;;0.10;0.10;;;;;;;19.02;59.66;102825.81;5053181;28;20029;-80
2022/08/10 02:34:38;;;;;;;0.10;0.10;;;;;;;18.97;59.73;102826.84;5042501;28;20032;-81
2022/08/10 02:37:06;;;;;;;0.10;0.10;;;;;;;18.96;59.10;102825.97;5049132;28;20030;-80
2022/08/10 02:39:35;;;;;;;0.10;0.10;;;;;;;18.90;59.74;102821.63;5046241;28;20030;-81
2022/08/10 02:42:11;;;;;;;0.00;0.00;;;;;;;18.91;59.13;102827.88;5036814;28;20029;-81
2022/08/10 02:47:25;;;;;;;0.05;0.05;;;;;;;18.87;59.03;102818.09;5059560;28;20400;-77
2022/08/10 02:50:01;;;;;;;0.00;0.00;;;;;;;18.84;59.74;102821.75;5045522;28;20049;-77
2022/08/10 02:52:37;;;;;;;0.00;0.00;;;;;;;18.84;59.59;102813.69;5052062;28;20029;-77
2022/08/10 02:55:18;;;;;;;0.10;0.10;;;;;;;18.83;59.66;102808.31;5049214;28;20033;-77
2022/08/10 02:57:51;;;;;;;0.00;0.00;;;;;;;18.81;59.60;102804.81;5051497;28;20036;-76
2022/08/10 03:00:17;;;;;;;0.10;0.10;;;;;;;18.79;59.40;102809.31;5059467;28;20151;-77
2022/08/10 03:02:48;;;;;;;0.20;0.20;;;;;;;18.78;60.09;102810.25;5062377;28;20024;-77
2022/08/10 03:05:16;;;;;;;1.27;0.63;;;;;;;18.75;60.22;102806.72;5051494;28;20048;-77
2022/08/10 03:07:50;;;;;;;0.00;0.00;;;;;;;18.76;60.21;102813.84;5058517;28;20032;-77
2022/08/10 03:10:21;;;;;;;0.00;0.00;;;;;;;18.74;60.14;102804.97;5049865;28;20448;-77
2022/08/10 03:12:54;;;;;;;0.10;0.10;;;;;;;18.75;60.17;102801.34;5054540;28;20069;-77
2022/08/10 03:15:21;;;;;;;0.03;0.03;;;;;;;18.75;60.24;102808.50;5061773;28;20032;-77
2022/08/10 03:17:50;;;;;;;0.10;0.10;;;;;;;18.73;60.29;102810.38;5053891;28;20025;-76
2022/08/10 03:20:19;;;;;;;0.10;0.10;;;;;;;18.74;60.39;102804.06;5048635;28;20550;-76
2022/08/10 03:22:47;;;;;;;0.10;0.10;;;;;;;18.74;60.55;102809.44;5054386;28;20517;-76
2022/08/10 03:25:13;;;;;;;0.60;0.60;;;;;;;18.76;60.31;102807.59;5048419;28;20048;-77
2022/08/10 03:27:41;;;;;;;0.00;0.00;;;;;;;18.76;60.68;102797.72;5049928;28;20041;-76
2022/08/10 03:30:09;;;;;;;0.00;0.00;;;;;;;18.78;59.78;102800.41;5056716;28;20056;-76
2022/08/10 03:32:36;;;;;;;0.10;0.10;;;;;;;18.76;60.83;102802.22;5056274;28;20454;-77
2022/08/10 03:35:03;;;;;;;0.00;0.00;;;;;;;18.74;60.70;102796.91;5056374;28;20510;-77
2022/08/10 03:37:30;;;;;;;0.10;0.10;;;;;;;18.75;60.15;102797.78;5057394;28;20216;-77
2022/08/10 03:39:56;;;;;;;0.00;0.00;;;;;;;18.73;60.94;102795.13;5050036;28;20036;-77
2022/08/10 03:42:25;;;;;;;0.10;0.10;;;;;;;18.72;60.92;102796.03;5050929;28;20056;-77
2022/08/10 03:44:53;;;;;;;0.00;0.00;;;;;;;18.72;60.81;102792.50;5059400;28;20024;-77
2022/08/10 03:47:22;;;;;;;0.10;0.10;;;;;;;18.71;60.38;102794.28;5057636;28;20033;-77
2022/08/10 03:49:50;;;;;;;0.03;0.03;;;;;;;18.69;60.97;102798.81;5056095;28;20084;-77
2022/08/10 03:52:18;;;;;;;0.10;0.10;;;;;;;18.69;61.19;102790.75;5052239;28;20190;-76
2022/08/10 03:54:44;;;;;;;0.00;0.00;;;;;;;18.68;60.89;102794.34;5051664;28;20395;-77
2022/08/10 03:57:11;;;;;;;0.00;0.00;;;;;;;18.67;60.93;102797.94;5043294;28;20048;-77
2022/08/10 03:59:38;;;;;;;0.10;0.10;;;;;;;18.65;60.92;102791.72;5041808;28;20033;-77
2022/08/10 04:02:05;;;;;;;0.10;0.10;;;;;;;18.65;61.13;102798.91;5040762;28;20037;-76
2022/08/10 04:04:32;;;;;;;0.20;0.20;;;;;;;18.64;61.65;102803.41;5036995;28;20087;-77
2022/08/10 04:06:59;;;;;;;0.10;0.10;;;;;;;18.64;61.32;102803.41;5038831;28;20098;-76
2022/08/10 04:09:27;;;;;;;0.00;0.00;;;;;;;18.64;61.14;102806.09;5033183;28;20065;-77
2022/08/10 04:11:54;;;;;;;0.00;0.00;;;;;;;18.62;61.48;102796.28;5035682;28;20029;-77
2022/08/10 04:14:20;;;;;;;0.75;0.75;;;;;;;18.61;61.49;102792.72;5041984;28;20040;-77
2022/08/10 04:16:46;;;;;;;0.10;0.10;;;;;;;18.60;60.60;102796.31;5044282;28;20029;-77
2022/08/10 04:19:15;;;;;;;0.10;0.10;;;;;;;18.58;61.24;102798.19;5038355;28;20049;-77
2022/08/10 04:21:46;;;;;;;0.10;0.10;;;;;;;18.59;61.31;102799.91;5038143;28;20037;-77
2022/08/10 04:24:19;;;;;;;0.20;0.20;;;;;;;18.59;61.03;102794.53;5033909;28;20120;-77
2022/08/10 04:26:45;;;;;;;0.10;0.10;;;;;;;18.56;61.46;102800.00;5037842;28;20021;-77
2022/08/10 04:29:12;;;;;;;0.00;0.00;;;;;;;18.56;61.42;102789.25;5040823;28;20086;-76
2022/08/10 04:31:42;;;;;;;0.10;0.10;;;;;;;18.57;61.68;102791.03;5037898;28;20124;-77
2022/08/10 04:34:09;;;;;;;0.00;0.00;;;;;;;18.57;61.33;102788.34;5039748;28;20044;-77
2022/08/10 04:36:36;;;;;;;0.40;0.40;;;;;;;18.56;61.82;102789.25;5040752;28;20033;-77
2022/08/10 04:39:02;;;;;;;0.10;0.10;;;;;;;18.58;61.99;102792.81;5033332;28;20522;-76
2022/08/10 04:41:29;;;;;;;0.00;0.00;;;;;;;18.57;62.20;102796.41;5036088;28;20029;-76
2022/08/10 04:43:55;;;;;;;0.00;0.00;;;;;;;18.58;61.53;102800.88;5040138;28;20064;-77
2022/08/10 04:46:21;;;;;;;0.10;0.10;;;;;;;18.59;62.08;102799.91;5038786;28;20021;-77
2022/08/10 04:48:47;;;;;;;0.10;0.10;;;;;;;18.62;61.98;102797.19;5039654;28;20045;-76
2022/08/10 04:51:16;;;;;;;0.10;0.10;;;;;;;18.63;62.12;102803.41;5033327;28;20431;-77
2022/08/10 04:53:42;;;;;;;0.20;0.20;;;;;;;18.59;62.16;102794.53;5034740;28;20030;-77
2022/08/10 04:56:08;;;;;;;0.00;0.00;;;;;;;18.62;61.82;102794.50;5035506;28;20107;-77
2022/08/10 04:58:35;;;;;;;0.00;0.00;;;;;;;18.58;62.83;102800.88;5032845;28;20037;-77
2022/08/10 05:01:02;;;;;;;0.30;0.30;;;;;;;18.62;61.94;102793.59;5032493;28;20121;-77
2022/08/10 05:03:28;;;;;;;0.00;0.00;;;;;;;18.64;61.63;102800.72;5028311;28;20100;-77
2022/08/10 05:05:54;;;;;;;0.00;0.00;;;;;;;18.66;62.04;102796.19;5031212;28;20032;-77
2022/08/10 05:08:20;;;;;;;0.20;0.20;;;;;;;18.69;62.66;102797.91;5030951;28;20172;-77
2022/08/10 05:10:46;;;;;;;0.10;0.10;;;;;;;18.72;62.06;102798.72;5033218;28;20138;-77
2022/08/10 05:13:12;;;;;;;0.00;0.00;;;;;;;18.75;62.39;102795.09;5027968;28;20126;-77
2022/08/10 05:15:42;;;;;;;0.00;0.00;;;;;;;18.76;62.11;102796.84;5030086;28;20021;-77
2022/08/10 05:18:08;;;;;;;0.10;0.10;;;;;;;18.74;62.71;102794.22;5028777;28;20037;-78
2022/08/10 05:20:34;;;;;;;0.10;0.10;;;;;;;18.76;63.06;102792.34;5030005;28;20034;-78
2022/08/10 05:23:01;;;;;;;0.00;0.00;;;;;;;18.81;62.07;102799.44;5027224;28;20040;-78
2022/08/10 05:25:27;;;;;;;0.10;0.10;;;;;;;18.81;62.44;102800.31;5037240;28;20044;-77
2022/08/10 05:27:53;;;;;;;0.00;0.00;;;;;;;18.82;62.70;102793.16;5031934;28;20069;-78
2022/08/10 05:30:22;;;;;;;0.10;0.10;;;;;;;18.83;62.89;102800.28;5035566;28;20030;-79
2022/08/10 05:32:49;;;;;;;0.10;0.10;;;;;;;18.90;62.09;102801.91;5025502;28;20387;-78
2022/08/10 05:35:15;;;;;;;0.10;0.10;;;;;;;18.90;62.86;102802.84;5036315;28;20098;-78
2022/08/10 05:37:43;;;;;;;2.17;0.85;;;;;;;18.91;63.43;102796.50;5037363;28;20028;-80
2022/08/10 05:40:09;;;;;;;0.05;0.05;;;;;;;18.96;62.58;102793.72;5039151;28;20029;-79
2022/08/10 05:42:36;;;;;;;0.10;0.10;;;;;;;19.01;62.59;102802.56;5036193;28;20099;-78
2022/08/10 05:45:03;;;;;;;0.08;0.08;;;;;;;19.03;62.33;102798.03;5039621;28;20051;-78
2022/08/10 05:47:29;;;;;;;0.10;0.10;;;;;;;19.06;62.17;102799.75;5038041;28;20061;-79
2022/08/10 05:49:56;;;;;;;0.10;0.10;;;;;;;19.10;61.95;102801.44;5034053;28;20033;-78
2022/08/10 05:52:22;;;;;;;0.20;0.20;;;;;;;19.12;62.79;102802.28;5037752;28;20032;-78
2022/08/10 05:54:49;;;;;;;0.10;0.10;;;;;;;19.22;62.45;102811.00;5033271;28;20400;-78
2022/08/10 05:57:18;;;;;;;0.10;0.10;;;;;;;19.27;62.24;102809.09;5031026;28;20102;-78
2022/08/10 05:59:50;;;;;;;0.38;0.38;;;;;;;19.29;63.12;102812.63;5029026;28;20044;-78
2022/08/10 06:02:25;;;;;;;0.10;0.10;;;;;;;19.38;62.28;102801.63;5032511;28;20081;-78
2022/08/10 06:04:54;;;;;;;0.15;0.15;;;;;;;19.38;63.08;102807.00;5031627;28;20041;-78
2022/08/10 06:07:20;;;;;;;0.90;0.90;;;;;;;19.45;62.25;102799.69;5032294;28;20034;-82
2022/08/10 06:09:48;;;;;;;0.90;0.90;;;;;;;19.48;61.98;102804.97;5038653;28;20029;-78
2022/08/10 06:12:15;;;;;;;0.10;0.10;;;;;;;19.56;62.75;102788.63;5037423;28;20061;-78
2022/08/10 06:15:14;;;;;;;0.35;0.35;;;;;;;19.59;62.25;102788.56;5040300;28;20026;-78
2022/08/10 06:17:30;;;;;;;0.00;0.00;;;;;;;19.66;62.93;102794.63;5035474;28;20113;-78
2022/08/10 06:19:58;;;;;;;0.10;0.10;;;;;;;19.70;62.26;102799.91;5027014;28;20750;-78
2022/08/10 06:22:28;;;;;;;0.05;0.05;;;;;;;19.75;62.69;102798.88;5029636;28;20037;-78
2022/08/10 06:24:56;;;;;;;0.17;0.17;;;;;;;19.81;62.23;102793.34;5039631;28;20040;-78
2022/08/10 06:27:22;;;;;;;0.10;0.10;;;;;;;19.85;62.69;102795.03;5038147;28;20029;-78
2022/08/10 06:29:50;;;;;;;0.00;0.00;;;;;;;19.91;62.45;102794.00;5038837;28;20064;-78
2022/08/10 06:32:17;;;;;;;4.40;1.13;;;;;;;19.95;63.58;102795.66;5037234;28;20029;-78
2022/08/10 06:34:48;;;;;;;0.10;0.10;;;;;;;20.08;62.56;102799.78;5038557;28;20116;-78
2022/08/10 06:37:16;;;;;;;1.45;0.65;;;;;;;20.12;62.87;102801.44;5038688;28;20030;-78
2022/08/10 06:39:43;;;;;;;0.13;0.13;;;;;;;20.19;62.87;102799.47;5036777;28;20394;-78
2022/08/10 06:42:18;;;;;;;0.03;0.03;;;;;;;20.26;62.73;102803.75;5035921;28;20115;-78
2022/08/10 06:45:08;;;;;;;0.10;0.10;;;;;;;20.38;62.16;102798.91;5036893;28;20548;-77
2022/08/10 06:50:43;;;;;;;0.22;0.22;;;;;;;20.53;61.73;102798.44;5112735;27;20367;-78
2022/08/10 06:53:14;;;;;;;0.20;0.20;;;;;;;20.59;61.61;102798.25;5113192;28;20044;-77
2022/08/10 06:55:45;;;;;;;0.10;0.10;;;;;;;20.63;61.25;102799.91;5112243;28;20432;-77
2022/08/10 06:58:14;;;;;;;0.65;0.65;;;;;;;20.71;61.81;102806.88;5113184;28;20024;-78
2022/08/10 07:00:42;;;;;;;0.35;0.35;;;;;;;20.78;61.74;102809.34;5112891;28;20382;-77
2022/08/10 07:03:13;;;;;;;0.10;0.10;;;;;;;20.90;61.92;102801.78;5107967;28;20103;-78
2022/08/10 07:05:46;;;;;;;0.10;0.10;;;;;;;20.98;61.71;102800.63;5114387;28;20035;-78
2022/08/10 07:08:17;;;;;;;0.10;0.10;;;;;;;21.06;61.30;102810.25;5114827;28;20020;-77
2022/08/10 07:10:44;;;;;;;0.10;0.10;;;;;;;21.15;61.26;102802.75;5112280;28;20036;-78
2022/08/10 07:13:11;;;;;;;0.05;0.05;;;;;;;21.24;61.21;102801.56;5112347;28;20105;-79
2022/08/10 07:15:38;;;;;;;0.10;0.10;;;;;;;21.30;60.92;102805.88;5112050;28;20694;-78
2022/08/10 07:18:05;;;;;;;0.03;0.03;;;;;;;21.44;60.64;102797.31;5109155;28;20030;-77
2022/08/10 07:20:32;;;;;;;0.10;0.10;;;;;;;21.54;60.78;102793.34;5130946;28;20046;-78
2022/08/10 07:22:59;;;;;;;0.10;0.10;;;;;;;21.54;59.99;102789.78;5134971;27;20084;-77
2022/08/10 07:25:27;;;;;;;0.10;0.10;;;;;;;21.72;59.39;102789.16;5133644;27;20066;-78
2022/08/10 07:27:56;;;;;;;0.43;0.43;;;;;;;21.81;59.90;102786.09;5131267;27;20481;-77
2022/08/10 07:30:23;;;;;;;0.10;0.10;;;;;;;21.94;59.67;102786.56;5107630;28;20413;-78
2022/08/10 07:32:51;;;;;;;1.02;0.65;;;;;;;22.06;59.50;102789.72;5105306;28;20023;-77
2022/08/10 07:35:20;;;;;;;0.10;0.10;;;;;;;22.15;59.10;102783.97;5132145;27;20092;-78
2022/08/10 07:37:48;;;;;;;0.05;0.05;;;;;;;22.27;58.79;102783.50;5133163;27;20393;-78
2022/08/10 07:40:18;;;;;;;0.57;0.57;;;;;;;22.39;58.70;102786.69;5132167;27;20076;-77
2022/08/10 07:42:47;;;;;;;0.10;0.10;;;;;;;22.45;58.31;102789.16;5131125;27;20165;-78
2022/08/10 07:45:13;;;;;;;0.10;0.10;;;;;;;22.49;58.11;102788.06;5115277;27;20044;-77
2022/08/10 07:47:47;;;;;;;0.10;0.10;;;;;;;22.60;58.11;102796.66;5102552;28;20516;-77
2022/08/10 07:50:17;;;;;;;0.17;0.17;;;;;;;22.66;57.67;102795.53;5110848;28;20031;-77
2022/08/10 07:52:46;;;;;;;0.10;0.10;;;;;;;22.71;57.47;102798.03;5110809;28;20062;-78
2022/08/10 07:55:17;;;;;;;0.10;0.10;;;;;;;22.81;57.41;102802.13;5107020;28;20027;-77
2022/08/10 07:57:47;;;;;;;0.10;0.10;;;;;;;22.88;57.42;102798.22;5110009;28;20420;-77
2022/08/10 08:00:14;;;;;;;0.40;0.40;;;;;;;22.98;56.70;102800.53;5106427;28;20028;-77
2022/08/10 08:02:49;;;;;;;0.10;0.10;;;;;;;23.09;56.79;102800.97;5088140;28;20066;-77
2022/08/10 08:05:19;;;;;;;0.08;0.08;;;;;;;23.10;56.54;102816.25;5095535;28;20039;-77
2022/08/10 08:07:47;;;;;;;0.10;0.10;;;;;;;23.18;55.72;102806.03;5095119;28;20028;-77
2022/08/10 08:10:16;;;;;;;0.10;0.10;;;;;;;23.30;56.52;102811.88;5095674;28;20020;-77
2022/08/10 08:12:44;;;;;;;0.10;0.10;;;;;;;23.38;56.68;102807.03;5095329;28;20024;-77
2022/08/10 08:15:14;;;;;;;0.10;0.10;;;;;;;23.44;56.63;102809.47;5091834;28;20032;-77
2022/08/10 08:17:41;;;;;;;0.20;0.20;;;;;;;23.49;56.21;102810.13;5108398;28;20034;-78
2022/08/10 08:20:09;;;;;;;0.10;0.10;;;;;;;23.60;56.22;102798.81;5120568;27;20032;-77
2022/08/10 08:22:37;;;;;;;0.03;0.03;;;;;;;23.67;55.92;102804.84;5118432;28;20509;-78
2022/08/10 08:25:04;;;;;;;1.80;0.40;;;;;;;23.72;55.78;102798.28;5118940;28;20059;-80
2022/08/10 08:27:32;;;;;;;0.00;0.00;;;;;;;23.78;55.62;102797.13;5120592;28;20027;-80
2022/08/10 08:30:00;;;;;;;0.10;0.10;;;;;;;23.89;55.73;102788.53;5117463;28;20024;-80
2022/08/10 08:32:30;;;;;;;0.10;0.10;;;;;;;23.99;54.89;102794.41;5106515;28;20043;-81
2022/08/10 08:35:03;;;;;;;0.10;0.10;;;;;;;24.07;53.54;102792.25;5102724;28;20059;-80
2022/08/10 08:37:32;;;;;;;0.10;0.10;;;;;;;24.19;54.59;102786.25;5100676;28;20032;-82
2022/08/10 08:40:00;;;;;;;0.10;0.10;;;;;;;24.27;54.42;102787.72;5102884;28;20016;-80
2022/08/10 08:42:53;;;;;;;0.30;0.30;;;;;;;24.48;53.97;102791.25;5101032;28;20050;-79
2022/08/10 08:45:47;;;;;;;0.03;0.03;;;;;;;24.63;53.28;102786.91;5096372;28;20051;-79
2022/08/10 08:51:12;;;;;;;0.10;0.10;;;;;;;24.84;53.43;102791.28;5117597;27;20357;-78
2022/08/10 08:54:06;;;;;;;0.10;0.10;;;;;;;25.00;52.99;102787.81;5116873;28;20058;-78
2022/08/10 08:57:02;;;;;;;0.10;0.10;;;;;;;25.06;53.01;102778.47;5118585;28;20027;-79
2022/08/10 09:02:37;;;;;;;0.10;0.10;;;;;;;25.18;52.36;102778.75;5080480;28;20411;-79
2022/08/10 09:11:05;;;;;;;0.10;0.10;;;;;;;25.40;51.72;102763.22;5080994;28;20395;-77
2022/08/10 09:13:53;;;;;;;0.10;0.10;;;;;;;25.55;52.03;102751.53;5081362;28;20063;-77
2022/08/10 09:16:43;;;;;;;0.20;0.20;;;;;;;25.76;51.40;102754.94;5068400;28;20033;-77
2022/08/10 09:22:06;;;;;;;0.28;0.28;;;;;;;25.84;50.58;102755.41;5095881;28;20124;-78
2022/08/10 09:24:53;;;;;;;0.10;0.10;;;;;;;25.98;50.43;102751.91;5089425;28;20549;-77
2022/08/10 09:27:35;;;;;;;0.35;0.35;;;;;;;26.05;49.90;102748.88;5096263;28;20024;-76
2022/08/10 09:30:06;;;;;;;0.10;0.10;;;;;;;26.23;50.33;102745.16;5095253;28;20028;-77
2022/08/10 09:32:45;;;;;;;0.10;0.10;;;;;;;26.38;49.55;102750.66;5094363;28;20401;-79
2022/08/10 09:35:34;;;;;;;0.15;0.15;;;;;;;26.40;49.27;102744.16;5085384;28;20040;-79
2022/08/10 09:38:32;;;;;;;0.43;0.43;;;;;;;26.66;48.81;102741.78;5090664;28;20040;-79
2022/08/10 09:43:55;;;;;;;0.10;0.10;;;;;;;26.85;47.86;102732.59;5124037;27;1199788;-78
2022/08/10 09:46:38;;;;;;;0.10;0.10;;;;;;;26.98;47.96;102733.59;5126023;27;20042;-76
2022/08/10 09:49:31;;;;;;;0.15;0.15;;;;;;;27.06;46.05;102731.28;5104586;28;20039;-77
2022/08/10 09:52:08;;;;;;;0.10;0.10;;;;;;;27.19;47.03;102720.53;5111371;28;20024;-78
2022/08/10 09:55:14;;;;;;;0.00;0.00;;;;;;;27.35;47.18;102716.88;5115949;28;20043;-77
2022/08/10 09:57:55;;;;;;;0.10;0.10;;;;;;;27.42;45.83;102716.41;5117019;28;20040;-77
2022/08/10 10:00:26;;;;;;;0.10;0.10;;;;;;;27.48;44.82;102706.09;5109299;28;20097;-77
2022/08/10 10:03:25;;;;;;;0.63;0.63;;;;;;;27.67;44.70;102709.44;5106904;28;20034;-77
2022/08/10 10:11:27;;;;;;;0.20;0.20;;;;;;;27.96;44.15;102701.22;5078539;28;20394;-79
2022/08/10 10:17:00;;;;;;;0.10;0.10;;;;;;;28.23;42.79;102697.72;4996732;28;20385;-80
2022/08/10 10:19:53;;;;;;;0.10;0.10;;;;;;;28.30;42.34;102695.44;4995799;28;20039;-79
2022/08/10 10:25:40;;;;;;;0.10;0.10;;;;;;;28.47;40.25;102687.00;5092671;27;20378;-76
2022/08/10 10:34:19;;;;;;;4.75;1.40;;;;;;;28.81;39.37;102679.31;5094684;27;20370;-77
2022/08/10 10:36:47;;;;;;;0.30;0.30;;;;;;;28.84;40.63;102678.22;5097984;28;20090;-77
2022/08/10 10:39:17;;;;;;;0.10;0.10;;;;;;;29.05;41.09;102676.69;5096233;28;20490;-76
2022/08/10 10:42:13;;;;;;;0.08;0.08;;;;;;;29.18;39.46;102671.25;5095994;28;20020;-77
2022/08/10 10:45:04;;;;;;;0.10;0.10;;;;;;;29.23;39.58;102667.34;5093197;28;20025;-78
2022/08/10 10:50:39;;;;;;;0.10;0.10;;;;;;;29.41;38.41;102665.16;5155882;27;20735;-77
2022/08/10 10:56:09;;;;;;;0.70;0.63;;;;;;;29.70;38.48;102660.31;5127683;27;20397;-77
2022/08/10 10:58:57;;;;;;;0.10;0.10;;;;;;;29.82;37.47;102659.44;5094417;28;20044;-76
2022/08/10 11:01:37;;;;;;;0.52;0.52;;;;;;;29.95;37.80;102667.59;5090221;28;20030;-77
2022/08/10 11:09:42;;;;;;;0.10;0.10;;;;;;;30.23;35.44;102646.38;5117209;27;20503;-77
2022/08/10 11:12:43;;;;;;;0.00;0.00;;;;;;;30.44;36.11;102638.41;5116020;28;20032;-77
2022/08/10 11:15:39;;;;;;;0.10;0.10;;;;;;;30.61;35.75;102639.88;5110889;28;20097;-77
2022/08/10 11:18:22;;;;;;;0.45;0.35;;;;;;;30.62;33.93;102640.78;5114945;28;20059;-77
2022/08/10 11:20:59;;;;;;;0.00;0.00;;;;;;;30.74;35.74;102637.06;5116779;28;20027;-77
2022/08/10 11:23:51;;;;;;;0.10;0.10;;;;;;;30.85;35.67;102636.22;5114005;28;20031;-76
2022/08/10 11:29:18;;;;;;;0.73;0.73;;;;;;;31.09;36.11;102632.56;5113954;27;20407;-76
2022/08/10 11:31:54;;;;;;;0.10;0.10;;;;;;;31.04;32.63;102630.19;5115458;28;20071;-77
2022/08/10 11:37:25;;;;;;;0.20;0.20;;;;;;;31.06;33.94;102627.31;5082754;27;20368;-77
2022/08/10 11:40:18;;;;;;;0.13;0.13;;;;;;;31.21;33.88;102628.84;5075467;28;20128;-77
2022/08/10 11:45:41;;;;;;;0.10;0.10;;;;;;;31.36;31.97;102624.00;5094761;27;20352;-76
2022/08/10 11:48:14;;;;;;;;;;;;;;;31.58;31.08;102612.16;5076395;28;20060;-77
2022/08/10 11:53:30;;;;;;;0.10;0.10;;;;;;;31.64;32.33;102609.94;5075691;28;20395;-77
2022/08/10 11:55:59;;;;;;;0.43;0.43;;;;;;;31.69;32.65;102602.19;5048396;28;20108;-77
2022/08/10 12:01:29;;;;;;;0.10;0.10;;;;;;;31.96;32.68;102593.53;5054671;28;20029;-77
2022/08/10 12:03:56;;;;;;;0.00;0.00;;;;;;;32.05;32.89;102598.25;5057274;28;20082;-77
2022/08/10 12:06:29;;;;;;;0.00;0.00;;;;;;;32.15;32.65;102592.88;5055930;28;20029;-77
2022/08/10 12:08:57;;;;;;;0.10;0.10;;;;;;;32.16;30.01;102594.56;5055609;28;20028;-76
2022/08/10 12:11:28;;;;;;;0.10;0.10;;;;;;;32.25;31.31;102587.47;5053734;28;20049;-75
2022/08/10 12:14:05;;;;;;;0.20;0.20;;;;;;;32.44;30.28;102589.50;5056399;28;20096;-77
2022/08/10 12:16:37;;;;;;;0.05;0.05;;;;;;;32.49;31.19;102592.72;5057308;28;20033;-77
2022/08/10 12:19:13;;;;;;;0.10;0.10;;;;;;;32.53;29.88;102574.97;5054372;28;20025;-77
2022/08/10 12:24:35;;;;;;;0.10;0.10;;;;;;;32.68;29.27;102578.25;5081625;28;20379;-77
2022/08/10 12:27:19;;;;;;;0.10;0.10;;;;;;;32.69;29.84;102579.16;5074520;28;20059;-76
2022/08/10 12:29:52;;;;;;;0.10;0.10;;;;;;;32.77;29.79;102576.59;5079717;28;20029;-76
2022/08/10 12:35:49;;;;;;;1.20;0.70;;;;;;;33.05;26.91;102569.53;5101606;27;20375;-77
2022/08/10 12:41:18;;;;;;;0.20;0.20;;;;;;;33.18;29.12;102568.44;5189973;27;20038;-77
2022/08/10 12:43:59;;;;;;;0.30;0.30;;;;;;;33.27;28.17;102566.72;5182727;27;20073;-78
2022/08/10 12:46:35;;;;;;;0.20;0.20;;;;;;;33.36;28.59;102566.78;5173375;27;20027;-78
2022/08/10 12:51:52;;;;;;;0.10;0.10;;;;;;;33.53;30.15;102553.38;5080574;28;20379;-78
2022/08/10 12:54:20;;;;;;;0.10;0.10;;;;;;;33.61;28.46;102563.66;5079501;28;20486;-77
2022/08/10 12:57:07;;;;;;;0.10;0.10;;;;;;;33.76;28.13;102556.75;5080635;28;20031;-77
2022/08/10 12:59:41;;;;;;;0.10;0.10;;;;;;;33.74;28.95;102558.78;5081211;28;20563;-76
2022/08/10 13:02:13;;;;;;;0.10;0.10;;;;;;;33.75;30.36;102549.53;5079915;28;20062;-78
2022/08/10 13:04:42;;;;;;;0.10;0.10;;;;;;;33.65;30.66;102544.00;5080508;28;20036;-78
2022/08/10 13:07:10;;;;;;;0.10;0.10;;;;;;;33.69;31.27;102541.84;5078451;28;20025;-77
2022/08/10 13:09:36;;;;;;;0.10;0.10;;;;;;;33.79;31.62;102539.97;5075853;28;20036;-77
2022/08/10 13:12:12;;;;;;;0.10;0.10;;;;;;;33.77;30.65;102544.75;5076938;28;20035;-77
2022/08/10 13:17:29;;;;;;;0.05;0.05;;;;;;;33.92;32.51;102528.75;5118796;27;20882;-77
2022/08/10 13:19:58;;;;;;;0.45;0.45;;;;;;;33.96;31.27;102534.78;5120010;28;20031;-77
2022/08/10 13:22:29;;;;;;;1.65;0.30;;;;;;;33.99;30.83;102526.28;5116201;28;20088;-77
2022/08/10 13:25:00;;;;;;;0.30;0.30;;;;;;;34.12;29.71;102528.72;5131569;28;20027;-77
2022/08/10 13:27:33;;;;;;;0.08;0.08;;;;;;;34.18;31.14;102517.13;5139787;27;20039;-77
2022/08/10 13:30:05;;;;;;;0.45;0.20;;;;;;;34.21;31.00;102521.47;5140082;27;20053;-77
2022/08/10 13:32:35;;;;;;;0.10;0.10;;;;;;;34.28;30.80;102517.13;5139321;27;20027;-77